Maxeyville, Colorado
Current Conditions -  °F | °C
As of 7:10 PM on Saturday 25 Oct 2014 (Local Time) from KRCV Reporting Station
Clear Clear  
Wind Chill: 59°   Ceiling: Unl
Heat Index: 59°   Visibility: 10mi
Dew Point: 24°   Wind: 12mph
Humidity: 26%   Direction: 230°SW
Pressure: 30.28"   Gusts: NA
Location:  37.5196°N, 106.176°W
Report Text: KRCV 260110Z AUTO 23010KT 10SM CLR 15/M04 A3028 RMK AO2 T01511045
Loading
Personal Weather Stations






























Interactive Weather Map
Tropical Storm Tracking
New forecast layout! Learn more

10-Day Weather Forecast

Advertisements
Track Severe Weather on mobile